sensor_id;sensor_type;location;lat;lon;timestamp;P1;durP1;ratioP1;P2;durP2;ratioP2
15708;SDS011;7954;51.914;8.420;2023-03-23T00:02:20;7.03;;;2.63;;
15708;SDS011;7954;51.914;8.420;2023-03-23T00:04:49;3.30;;;2.27;;
15708;SDS011;7954;51.914;8.420;2023-03-23T00:07:16;3.17;;;2.07;;
15708;SDS011;7954;51.914;8.420;2023-03-23T00:09:46;4.27;;;2.10;;
15708;SDS011;7954;51.914;8.420;2023-03-23T00:12:18;2.67;;;2.00;;
15708;SDS011;7954;51.914;8.420;2023-03-23T00:14:47;3.97;;;2.47;;
15708;SDS011;7954;51.914;8.420;2023-03-23T00:17:13;3.60;;;2.20;;
15708;SDS011;7954;51.914;8.420;2023-03-23T00:19:42;2.30;;;2.10;;
15708;SDS011;7954;51.914;8.420;2023-03-23T00:22:16;3.27;;;2.40;;
15708;SDS011;7954;51.914;8.420;2023-03-23T00:24:46;3.20;;;2.20;;
15708;SDS011;7954;51.914;8.420;2023-03-23T00:27:15;2.80;;;2.00;;
15708;SDS011;7954;51.914;8.420;2023-03-23T00:29:42;2.87;;;2.17;;
15708;SDS011;7954;51.914;8.420;2023-03-23T00:32:10;2.30;;;2.10;;
15708;SDS011;7954;51.914;8.420;2023-03-23T00:34:40;5.10;;;2.30;;
15708;SDS011;7954;51.914;8.420;2023-03-23T00:37:11;2.80;;;2.50;;
15708;SDS011;7954;51.914;8.420;2023-03-23T00:39:38;6.00;;;2.47;;
15708;SDS011;7954;51.914;8.420;2023-03-23T00:42:11;2.63;;;2.20;;
15708;SDS011;7954;51.914;8.420;2023-03-23T00:44:38;2.40;;;2.20;;
15708;SDS011;7954;51.914;8.420;2023-03-23T00:47:06;2.70;;;2.13;;
15708;SDS011;7954;51.914;8.420;2023-03-23T00:49:33;2.50;;;2.20;;
15708;SDS011;7954;51.914;8.420;2023-03-23T00:52:03;2.20;;;2.00;;
15708;SDS011;7954;51.914;8.420;2023-03-23T00:54:31;3.70;;;2.00;;
15708;SDS011;7954;51.914;8.420;2023-03-23T00:56:58;2.77;;;2.03;;
15708;SDS011;7954;51.914;8.420;2023-03-23T00:59:25;2.93;;;1.90;;
15708;SDS011;7954;51.914;8.420;2023-03-23T01:01:52;2.67;;;1.80;;
15708;SDS011;7954;51.914;8.420;2023-03-23T01:04:21;3.40;;;1.90;;
15708;SDS011;7954;51.914;8.420;2023-03-23T01:06:48;2.97;;;1.80;;
15708;SDS011;7954;51.914;8.420;2023-03-23T01:09:18;2.03;;;1.80;;
15708;SDS011;7954;51.914;8.420;2023-03-23T01:11:46;2.77;;;1.70;;
15708;SDS011;7954;51.914;8.420;2023-03-23T01:14:14;2.73;;;1.97;;
15708;SDS011;7954;51.914;8.420;2023-03-23T01:16:42;2.60;;;2.17;;
15708;SDS011;7954;51.914;8.420;2023-03-23T01:19:09;2.10;;;1.60;;
15708;SDS011;7954;51.914;8.420;2023-03-23T01:21:36;3.10;;;1.77;;
15708;SDS011;7954;51.914;8.420;2023-03-23T01:24:04;4.27;;;2.17;;
15708;SDS011;7954;51.914;8.420;2023-03-23T01:26:34;2.77;;;1.80;;
15708;SDS011;7954;51.914;8.420;2023-03-23T01:29:01;4.03;;;2.03;;
15708;SDS011;7954;51.914;8.420;2023-03-23T01:31:29;3.13;;;1.93;;
15708;SDS011;7954;51.914;8.420;2023-03-23T01:33:55;2.10;;;1.70;;
15708;SDS011;7954;51.914;8.420;2023-03-23T01:36:23;3.10;;;1.80;;
15708;SDS011;7954;51.914;8.420;2023-03-23T01:38:52;2.80;;;1.70;;
15708;SDS011;7954;51.914;8.420;2023-03-23T01:41:20;1.73;;;1.60;;
15708;SDS011;7954;51.914;8.420;2023-03-23T01:43:57;1.97;;;1.50;;
15708;SDS011;7954;51.914;8.420;2023-03-23T01:46:26;2.20;;;1.70;;
15708;SDS011;7954;51.914;8.420;2023-03-23T01:48:55;3.17;;;1.67;;
15708;SDS011;7954;51.914;8.420;2023-03-23T01:51:24;2.20;;;1.83;;
15708;SDS011;7954;51.914;8.420;2023-03-23T01:53:53;2.93;;;1.77;;
15708;SDS011;7954;51.914;8.420;2023-03-23T01:56:24;2.37;;;1.80;;
15708;SDS011;7954;51.914;8.420;2023-03-23T01:58:55;2.17;;;1.80;;
15708;SDS011;7954;51.914;8.420;2023-03-23T02:01:23;3.63;;;1.70;;
15708;SDS011;7954;51.914;8.420;2023-03-23T02:03:51;2.27;;;1.70;;
15708;SDS011;7954;51.914;8.420;2023-03-23T02:06:20;2.20;;;1.77;;
15708;SDS011;7954;51.914;8.420;2023-03-23T02:08:48;2.23;;;1.70;;
15708;SDS011;7954;51.914;8.420;2023-03-23T02:11:17;2.27;;;1.80;;
15708;SDS011;7954;51.914;8.420;2023-03-23T02:13:45;2.23;;;1.73;;
15708;SDS011;7954;51.914;8.420;2023-03-23T02:16:17;4.37;;;1.80;;
15708;SDS011;7954;51.914;8.420;2023-03-23T02:18:53;2.10;;;1.90;;
15708;SDS011;7954;51.914;8.420;2023-03-23T02:21:49;2.40;;;1.70;;
15708;SDS011;7954;51.914;8.420;2023-03-23T02:27:35;2.27;;;1.50;;
15708;SDS011;7954;51.914;8.420;2023-03-23T02:30:40;2.43;;;1.60;;
15708;SDS011;7954;51.914;8.420;2023-03-23T02:33:26;3.10;;;1.90;;
15708;SDS011;7954;51.914;8.420;2023-03-23T02:36:13;2.20;;;2.00;;
15708;SDS011;7954;51.914;8.420;2023-03-23T02:38:50;1.93;;;1.80;;
15708;SDS011;7954;51.914;8.420;2023-03-23T02:41:23;2.67;;;1.70;;
15708;SDS011;7954;51.914;8.420;2023-03-23T02:43:54;2.97;;;1.90;;
15708;SDS011;7954;51.914;8.420;2023-03-23T02:46:22;2.60;;;2.00;;
15708;SDS011;7954;51.914;8.420;2023-03-23T02:48:52;2.10;;;1.90;;
15708;SDS011;7954;51.914;8.420;2023-03-23T02:51:21;1.93;;;1.77;;
15708;SDS011;7954;51.914;8.420;2023-03-23T02:53:52;2.37;;;2.00;;
15708;SDS011;7954;51.914;8.420;2023-03-23T02:56:21;3.10;;;2.20;;
15708;SDS011;7954;51.914;8.420;2023-03-23T02:58:50;3.00;;;2.17;;
15708;SDS011;7954;51.914;8.420;2023-03-23T03:04:17;1.90;;;1.60;;
15708;SDS011;7954;51.914;8.420;2023-03-23T03:06:47;1.80;;;1.40;;
15708;SDS011;7954;51.914;8.420;2023-03-23T03:09:22;2.47;;;1.73;;
15708;SDS011;7954;51.914;8.420;2023-03-23T03:11:58;2.20;;;1.50;;
15708;SDS011;7954;51.914;8.420;2023-03-23T03:14:31;1.77;;;1.30;;
15708;SDS011;7954;51.914;8.420;2023-03-23T03:17:03;1.87;;;1.43;;
15708;SDS011;7954;51.914;8.420;2023-03-23T03:19:38;1.60;;;1.47;;
15708;SDS011;7954;51.914;8.420;2023-03-23T03:22:08;2.03;;;1.50;;
15708;SDS011;7954;51.914;8.420;2023-03-23T03:24:36;2.73;;;1.43;;
15708;SDS011;7954;51.914;8.420;2023-03-23T03:27:04;1.70;;;1.23;;
15708;SDS011;7954;51.914;8.420;2023-03-23T03:29:37;1.50;;;1.40;;
15708;SDS011;7954;51.914;8.420;2023-03-23T03:32:08;3.10;;;1.50;;
15708;SDS011;7954;51.914;8.420;2023-03-23T03:34:41;2.07;;;1.50;;
15708;SDS011;7954;51.914;8.420;2023-03-23T03:37:07;1.47;;;1.37;;
15708;SDS011;7954;51.914;8.420;2023-03-23T03:39:37;1.40;;;1.30;;
15708;SDS011;7954;51.914;8.420;2023-03-23T03:42:05;1.40;;;1.30;;
15708;SDS011;7954;51.914;8.420;2023-03-23T03:44:32;1.40;;;1.30;;
15708;SDS011;7954;51.914;8.420;2023-03-23T03:47:00;2.53;;;1.70;;
15708;SDS011;7954;51.914;8.420;2023-03-23T03:49:26;1.93;;;1.50;;
15708;SDS011;7954;51.914;8.420;2023-03-23T03:51:55;1.97;;;1.40;;
15708;SDS011;7954;51.914;8.420;2023-03-23T03:54:21;1.47;;;1.33;;
15708;SDS011;7954;51.914;8.420;2023-03-23T03:56:48;4.10;;;1.60;;
15708;SDS011;7954;51.914;8.420;2023-03-23T03:59:17;2.07;;;1.67;;
15708;SDS011;7954;51.914;8.420;2023-03-23T04:01:44;3.33;;;1.60;;
15708;SDS011;7954;51.914;8.420;2023-03-23T04:04:11;1.47;;;1.37;;
15708;SDS011;7954;51.914;8.420;2023-03-23T04:06:38;1.77;;;1.50;;
15708;SDS011;7954;51.914;8.420;2023-03-23T04:09:07;1.33;;;1.23;;
15708;SDS011;7954;51.914;8.420;2023-03-23T04:11:33;1.90;;;1.30;;
15708;SDS011;7954;51.914;8.420;2023-03-23T04:14:01;1.40;;;1.30;;
15708;SDS011;7954;51.914;8.420;2023-03-23T04:16:28;1.40;;;1.30;;
15708;SDS011;7954;51.914;8.420;2023-03-23T04:18:55;3.40;;;1.40;;
15708;SDS011;7954;51.914;8.420;2023-03-23T04:21:22;1.57;;;1.37;;
15708;SDS011;7954;51.914;8.420;2023-03-23T04:23:54;1.30;;;1.20;;
15708;SDS011;7954;51.914;8.420;2023-03-23T04:26:22;2.30;;;1.30;;
15708;SDS011;7954;51.914;8.420;2023-03-23T04:28:49;2.13;;;1.50;;
15708;SDS011;7954;51.914;8.420;2023-03-23T04:31:17;1.90;;;1.47;;
15708;SDS011;7954;51.914;8.420;2023-03-23T04:33:44;1.20;;;1.10;;
15708;SDS011;7954;51.914;8.420;2023-03-23T04:36:11;2.40;;;1.40;;
15708;SDS011;7954;51.914;8.420;2023-03-23T04:38:41;1.83;;;1.50;;
15708;SDS011;7954;51.914;8.420;2023-03-23T04:41:08;1.53;;;1.40;;
15708;SDS011;7954;51.914;8.420;2023-03-23T04:43:36;1.50;;;1.40;;
15708;SDS011;7954;51.914;8.420;2023-03-23T04:46:07;1.50;;;1.40;;
15708;SDS011;7954;51.914;8.420;2023-03-23T04:48:35;1.70;;;1.60;;
15708;SDS011;7954;51.914;8.420;2023-03-23T04:51:04;1.30;;;1.20;;
15708;SDS011;7954;51.914;8.420;2023-03-23T04:53:32;1.57;;;1.47;;
15708;SDS011;7954;51.914;8.420;2023-03-23T04:55:59;2.07;;;1.40;;
15708;SDS011;7954;51.914;8.420;2023-03-23T04:58:29;1.53;;;1.30;;
15708;SDS011;7954;51.914;8.420;2023-03-23T05:01:00;1.77;;;1.30;;
15708;SDS011;7954;51.914;8.420;2023-03-23T05:03:26;1.40;;;1.30;;
15708;SDS011;7954;51.914;8.420;2023-03-23T05:05:53;1.40;;;1.30;;
15708;SDS011;7954;51.914;8.420;2023-03-23T05:08:20;1.47;;;1.20;;
15708;SDS011;7954;51.914;8.420;2023-03-23T05:10:51;2.03;;;1.37;;
15708;SDS011;7954;51.914;8.420;2023-03-23T05:13:20;1.57;;;1.47;;
15708;SDS011;7954;51.914;8.420;2023-03-23T05:15:48;1.40;;;1.30;;
15708;SDS011;7954;51.914;8.420;2023-03-23T05:18:17;1.77;;;1.67;;
15708;SDS011;7954;51.914;8.420;2023-03-23T05:20:46;1.40;;;1.30;;
15708;SDS011;7954;51.914;8.420;2023-03-23T05:23:14;3.07;;;1.40;;
15708;SDS011;7954;51.914;8.420;2023-03-23T05:25:41;2.07;;;1.60;;
15708;SDS011;7954;51.914;8.420;2023-03-23T05:28:08;2.87;;;1.73;;
15708;SDS011;7954;51.914;8.420;2023-03-23T05:30:37;2.07;;;1.37;;
15708;SDS011;7954;51.914;8.420;2023-03-23T05:33:05;1.50;;;1.40;;
15708;SDS011;7954;51.914;8.420;2023-03-23T05:35:33;1.53;;;1.20;;
15708;SDS011;7954;51.914;8.420;2023-03-23T05:38:01;1.40;;;1.30;;
15708;SDS011;7954;51.914;8.420;2023-03-23T05:40:29;1.30;;;1.20;;
15708;SDS011;7954;51.914;8.420;2023-03-23T05:42:57;1.33;;;1.23;;
15708;SDS011;7954;51.914;8.420;2023-03-23T05:45:24;1.30;;;1.13;;
15708;SDS011;7954;51.914;8.420;2023-03-23T05:47:51;1.60;;;1.50;;
15708;SDS011;7954;51.914;8.420;2023-03-23T05:50:18;2.23;;;1.47;;
15708;SDS011;7954;51.914;8.420;2023-03-23T05:52:46;1.97;;;1.40;;
15708;SDS011;7954;51.914;8.420;2023-03-23T05:55:13;1.63;;;1.40;;
15708;SDS011;7954;51.914;8.420;2023-03-23T05:57:40;1.33;;;1.23;;
15708;SDS011;7954;51.914;8.420;2023-03-23T06:00:10;1.50;;;1.40;;
15708;SDS011;7954;51.914;8.420;2023-03-23T06:02:45;1.40;;;1.30;;
15708;SDS011;7954;51.914;8.420;2023-03-23T06:05:13;1.33;;;1.23;;
15708;SDS011;7954;51.914;8.420;2023-03-23T06:07:41;1.63;;;1.30;;
15708;SDS011;7954;51.914;8.420;2023-03-23T06:10:10;1.90;;;1.50;;
15708;SDS011;7954;51.914;8.420;2023-03-23T06:12:37;1.83;;;1.50;;
15708;SDS011;7954;51.914;8.420;2023-03-23T06:15:04;2.00;;;1.60;;
15708;SDS011;7954;51.914;8.420;2023-03-23T06:17:32;1.50;;;1.40;;
15708;SDS011;7954;51.914;8.420;2023-03-23T06:20:00;2.30;;;1.20;;
15708;SDS011;7954;51.914;8.420;2023-03-23T06:22:29;1.90;;;1.63;;
15708;SDS011;7954;51.914;8.420;2023-03-23T06:24:56;1.73;;;1.40;;
15708;SDS011;7954;51.914;8.420;2023-03-23T06:27:24;2.03;;;1.40;;
15708;SDS011;7954;51.914;8.420;2023-03-23T06:29:51;2.27;;;1.27;;
15708;SDS011;7954;51.914;8.420;2023-03-23T06:32:18;1.83;;;1.60;;
15708;SDS011;7954;51.914;8.420;2023-03-23T06:34:46;1.60;;;1.50;;
15708;SDS011;7954;51.914;8.420;2023-03-23T06:37:12;1.40;;;1.30;;
15708;SDS011;7954;51.914;8.420;2023-03-23T06:39:41;1.40;;;1.30;;
15708;SDS011;7954;51.914;8.420;2023-03-23T06:42:08;1.60;;;1.50;;
15708;SDS011;7954;51.914;8.420;2023-03-23T06:44:37;1.40;;;1.30;;
15708;SDS011;7954;51.914;8.420;2023-03-23T06:47:04;1.50;;;1.40;;
15708;SDS011;7954;51.914;8.420;2023-03-23T06:49:32;1.90;;;1.50;;
15708;SDS011;7954;51.914;8.420;2023-03-23T06:51:59;2.10;;;1.50;;
15708;SDS011;7954;51.914;8.420;2023-03-23T06:54:27;1.80;;;1.53;;
15708;SDS011;7954;51.914;8.420;2023-03-23T06:56:54;1.50;;;1.40;;
15708;SDS011;7954;51.914;8.420;2023-03-23T06:59:21;1.60;;;1.50;;
15708;SDS011;7954;51.914;8.420;2023-03-23T07:01:50;1.43;;;1.33;;
15708;SDS011;7954;51.914;8.420;2023-03-23T07:04:17;3.20;;;1.50;;
15708;SDS011;7954;51.914;8.420;2023-03-23T07:06:44;1.93;;;1.50;;
15708;SDS011;7954;51.914;8.420;2023-03-23T07:09:11;1.80;;;1.60;;
15708;SDS011;7954;51.914;8.420;2023-03-23T07:11:38;1.70;;;1.60;;
15708;SDS011;7954;51.914;8.420;2023-03-23T07:14:05;5.17;;;1.67;;
15708;SDS011;7954;51.914;8.420;2023-03-23T07:16:33;1.60;;;1.50;;
15708;SDS011;7954;51.914;8.420;2023-03-23T07:19:01;2.03;;;1.60;;
15708;SDS011;7954;51.914;8.420;2023-03-23T07:21:27;1.73;;;1.60;;
15708;SDS011;7954;51.914;8.420;2023-03-23T07:23:54;1.50;;;1.40;;
15708;SDS011;7954;51.914;8.420;2023-03-23T07:26:21;1.93;;;1.50;;
15708;SDS011;7954;51.914;8.420;2023-03-23T07:28:48;2.47;;;2.27;;
15708;SDS011;7954;51.914;8.420;2023-03-23T07:31:16;1.57;;;1.47;;
15708;SDS011;7954;51.914;8.420;2023-03-23T07:33:43;1.97;;;1.50;;
15708;SDS011;7954;51.914;8.420;2023-03-23T07:36:11;3.10;;;2.53;;
15708;SDS011;7954;51.914;8.420;2023-03-23T07:38:39;2.53;;;1.80;;
15708;SDS011;7954;51.914;8.420;2023-03-23T07:41:08;1.83;;;1.73;;
15708;SDS011;7954;51.914;8.420;2023-03-23T07:43:35;3.10;;;1.90;;
15708;SDS011;7954;51.914;8.420;2023-03-23T07:46:01;2.83;;;1.90;;
15708;SDS011;7954;51.914;8.420;2023-03-23T07:48:28;1.83;;;1.60;;
15708;SDS011;7954;51.914;8.420;2023-03-23T07:50:55;1.60;;;1.50;;
15708;SDS011;7954;51.914;8.420;2023-03-23T07:53:24;4.10;;;2.30;;
15708;SDS011;7954;51.914;8.420;2023-03-23T07:55:52;2.33;;;1.67;;
15708;SDS011;7954;51.914;8.420;2023-03-23T07:58:20;1.97;;;1.77;;
15708;SDS011;7954;51.914;8.420;2023-03-23T08:00:47;3.27;;;1.80;;
15708;SDS011;7954;51.914;8.420;2023-03-23T08:03:15;2.53;;;1.70;;
15708;SDS011;7954;51.914;8.420;2023-03-23T08:05:43;2.33;;;1.77;;
15708;SDS011;7954;51.914;8.420;2023-03-23T08:08:10;1.97;;;1.63;;
15708;SDS011;7954;51.914;8.420;2023-03-23T08:10:40;2.27;;;1.63;;
15708;SDS011;7954;51.914;8.420;2023-03-23T08:13:06;2.93;;;1.80;;
15708;SDS011;7954;51.914;8.420;2023-03-23T08:15:35;2.93;;;1.80;;
15708;SDS011;7954;51.914;8.420;2023-03-23T08:18:03;2.40;;;1.63;;
15708;SDS011;7954;51.914;8.420;2023-03-23T08:20:30;3.20;;;1.90;;
15708;SDS011;7954;51.914;8.420;2023-03-23T08:22:57;5.03;;;2.13;;
15708;SDS011;7954;51.914;8.420;2023-03-23T08:25:25;2.07;;;1.77;;
15708;SDS011;7954;51.914;8.420;2023-03-23T08:27:54;5.17;;;2.10;;
15708;SDS011;7954;51.914;8.420;2023-03-23T08:30:21;3.00;;;1.93;;
15708;SDS011;7954;51.914;8.420;2023-03-23T08:32:49;3.23;;;1.50;;
15708;SDS011;7954;51.914;8.420;2023-03-23T08:35:17;2.60;;;1.80;;
15708;SDS011;7954;51.914;8.420;2023-03-23T08:37:45;3.73;;;1.63;;
15708;SDS011;7954;51.914;8.420;2023-03-23T08:40:16;4.73;;;1.73;;
15708;SDS011;7954;51.914;8.420;2023-03-23T08:42:45;4.70;;;2.00;;
15708;SDS011;7954;51.914;8.420;2023-03-23T08:45:17;4.93;;;2.03;;
15708;SDS011;7954;51.914;8.420;2023-03-23T08:47:46;3.53;;;2.30;;
15708;SDS011;7954;51.914;8.420;2023-03-23T08:50:15;3.40;;;1.63;;
15708;SDS011;7954;51.914;8.420;2023-03-23T08:52:44;2.47;;;1.63;;
15708;SDS011;7954;51.914;8.420;2023-03-23T08:55:11;4.83;;;1.97;;
15708;SDS011;7954;51.914;8.420;2023-03-23T08:57:38;3.67;;;1.80;;
15708;SDS011;7954;51.914;8.420;2023-03-23T09:00:08;4.57;;;2.13;;
15708;SDS011;7954;51.914;8.420;2023-03-23T09:02:45;4.60;;;1.97;;
15708;SDS011;7954;51.914;8.420;2023-03-23T09:05:13;1.60;;;1.50;;
15708;SDS011;7954;51.914;8.420;2023-03-23T09:07:44;6.13;;;2.30;;
15708;SDS011;7954;51.914;8.420;2023-03-23T09:10:14;1.90;;;1.50;;
15708;SDS011;7954;51.914;8.420;2023-03-23T09:12:41;4.03;;;2.07;;
15708;SDS011;7954;51.914;8.420;2023-03-23T09:15:10;3.63;;;1.90;;
15708;SDS011;7954;51.914;8.420;2023-03-23T09:17:40;3.03;;;2.00;;
15708;SDS011;7954;51.914;8.420;2023-03-23T09:20:13;3.10;;;1.90;;
15708;SDS011;7954;51.914;8.420;2023-03-23T09:22:46;2.00;;;1.73;;
15708;SDS011;7954;51.914;8.420;2023-03-23T09:25:15;3.17;;;1.97;;
15708;SDS011;7954;51.914;8.420;2023-03-23T09:27:48;5.33;;;1.90;;
15708;SDS011;7954;51.914;8.420;2023-03-23T09:30:18;3.43;;;2.53;;
15708;SDS011;7954;51.914;8.420;2023-03-23T09:32:45;3.47;;;1.90;;
15708;SDS011;7954;51.914;8.420;2023-03-23T09:35:15;4.20;;;1.70;;
15708;SDS011;7954;51.914;8.420;2023-03-23T09:37:42;3.73;;;1.90;;
15708;SDS011;7954;51.914;8.420;2023-03-23T09:40:11;2.73;;;1.87;;
15708;SDS011;7954;51.914;8.420;2023-03-23T09:43:00;3.07;;;1.87;;
15708;SDS011;7954;51.914;8.420;2023-03-23T09:45:43;3.03;;;1.60;;
15708;SDS011;7954;51.914;8.420;2023-03-23T09:48:25;2.97;;;1.97;;
15708;SDS011;7954;51.914;8.420;2023-03-23T09:51:00;2.93;;;1.80;;
15708;SDS011;7954;51.914;8.420;2023-03-23T09:53:34;3.00;;;1.50;;
15708;SDS011;7954;51.914;8.420;2023-03-23T09:56:08;3.17;;;1.70;;
15708;SDS011;7954;51.914;8.420;2023-03-23T09:58:37;3.70;;;1.90;;
15708;SDS011;7954;51.914;8.420;2023-03-23T10:01:13;1.80;;;1.60;;
15708;SDS011;7954;51.914;8.420;2023-03-23T10:03:44;3.43;;;2.00;;
15708;SDS011;7954;51.914;8.420;2023-03-23T10:06:14;3.87;;;1.80;;
15708;SDS011;7954;51.914;8.420;2023-03-23T10:08:44;5.00;;;2.10;;
15708;SDS011;7954;51.914;8.420;2023-03-23T10:11:14;2.53;;;1.90;;
15708;SDS011;7954;51.914;8.420;2023-03-23T10:13:56;4.77;;;2.20;;
15708;SDS011;7954;51.914;8.420;2023-03-23T10:16:40;2.60;;;1.80;;
15708;SDS011;7954;51.914;8.420;2023-03-23T10:19:15;5.20;;;2.27;;
15708;SDS011;7954;51.914;8.420;2023-03-23T10:21:49;3.73;;;1.97;;
15708;SDS011;7954;51.914;8.420;2023-03-23T10:24:20;3.87;;;1.93;;
15708;SDS011;7954;51.914;8.420;2023-03-23T10:26:53;4.23;;;2.10;;
15708;SDS011;7954;51.914;8.420;2023-03-23T10:29:29;6.83;;;2.53;;
15708;SDS011;7954;51.914;8.420;2023-03-23T10:32:03;5.03;;;2.37;;
15708;SDS011;7954;51.914;8.420;2023-03-23T10:34:42;7.43;;;2.10;;
15708;SDS011;7954;51.914;8.420;2023-03-23T10:37:15;3.83;;;2.03;;
15708;SDS011;7954;51.914;8.420;2023-03-23T10:39:47;2.83;;;2.17;;
15708;SDS011;7954;51.914;8.420;2023-03-23T10:42:24;5.07;;;2.47;;
15708;SDS011;7954;51.914;8.420;2023-03-23T10:44:53;3.93;;;1.73;;
15708;SDS011;7954;51.914;8.420;2023-03-23T10:47:21;5.80;;;2.07;;
15708;SDS011;7954;51.914;8.420;2023-03-23T10:49:49;6.17;;;2.30;;
15708;SDS011;7954;51.914;8.420;2023-03-23T10:52:23;4.07;;;2.10;;
15708;SDS011;7954;51.914;8.420;2023-03-23T10:54:55;3.77;;;1.90;;
15708;SDS011;7954;51.914;8.420;2023-03-23T10:57:23;3.40;;;1.97;;
15708;SDS011;7954;51.914;8.420;2023-03-23T10:59:57;5.57;;;1.80;;
15708;SDS011;7954;51.914;8.420;2023-03-23T11:02:26;4.13;;;1.83;;
15708;SDS011;7954;51.914;8.420;2023-03-23T11:04:56;2.50;;;1.40;;
15708;SDS011;7954;51.914;8.420;2023-03-23T11:07:29;9.97;;;9.10;;
15708;SDS011;7954;51.914;8.420;2023-03-23T11:10:05;8.70;;;7.80;;
15708;SDS011;7954;51.914;8.420;2023-03-23T11:12:43;6.83;;;6.23;;
15708;SDS011;7954;51.914;8.420;2023-03-23T11:15:16;7.03;;;6.30;;
15708;SDS011;7954;51.914;8.420;2023-03-23T11:17:57;1.37;;;1.10;;
15708;SDS011;7954;51.914;8.420;2023-03-23T11:20:25;2.57;;;1.30;;
15708;SDS011;7954;51.914;8.420;2023-03-23T11:22:56;1.23;;;1.10;;
15708;SDS011;7954;51.914;8.420;2023-03-23T11:25:23;3.10;;;2.00;;
15708;SDS011;7954;51.914;8.420;2023-03-23T11:27:51;2.67;;;1.80;;
15708;SDS011;7954;51.914;8.420;2023-03-23T11:30:22;2.07;;;1.30;;
15708;SDS011;7954;51.914;8.420;2023-03-23T11:32:54;3.37;;;1.30;;
15708;SDS011;7954;51.914;8.420;2023-03-23T11:35:22;1.80;;;1.10;;
15708;SDS011;7954;51.914;8.420;2023-03-23T11:37:52;1.10;;;1.10;;
15708;SDS011;7954;51.914;8.420;2023-03-23T11:40:24;1.97;;;1.30;;
15708;SDS011;7954;51.914;8.420;2023-03-23T11:42:57;2.93;;;1.30;;
15708;SDS011;7954;51.914;8.420;2023-03-23T11:45:31;1.90;;;1.30;;
15708;SDS011;7954;51.914;8.420;2023-03-23T11:48:06;1.10;;;1.00;;
15708;SDS011;7954;51.914;8.420;2023-03-23T11:50:50;4.47;;;1.60;;
15708;SDS011;7954;51.914;8.420;2023-03-23T11:53:22;2.93;;;1.43;;
15708;SDS011;7954;51.914;8.420;2023-03-23T11:55:57;2.07;;;1.63;;
15708;SDS011;7954;51.914;8.420;2023-03-23T11:58:32;2.63;;;1.37;;
15708;SDS011;7954;51.914;8.420;2023-03-23T12:01:00;2.70;;;1.37;;
15708;SDS011;7954;51.914;8.420;2023-03-23T12:03:43;1.80;;;1.47;;
15708;SDS011;7954;51.914;8.420;2023-03-23T12:06:25;3.27;;;1.20;;
15708;SDS011;7954;51.914;8.420;2023-03-23T12:09:03;2.13;;;1.40;;
15708;SDS011;7954;51.914;8.420;2023-03-23T12:11:39;1.37;;;1.17;;
15708;SDS011;7954;51.914;8.420;2023-03-23T12:14:26;2.00;;;1.37;;
15708;SDS011;7954;51.914;8.420;2023-03-23T12:17:00;1.87;;;1.33;;
15708;SDS011;7954;51.914;8.420;2023-03-23T12:19:39;4.47;;;1.53;;
15708;SDS011;7954;51.914;8.420;2023-03-23T12:22:16;1.87;;;1.10;;
15708;SDS011;7954;51.914;8.420;2023-03-23T12:24:54;4.10;;;1.57;;
15708;SDS011;7954;51.914;8.420;2023-03-23T12:27:35;1.10;;;1.00;;
15708;SDS011;7954;51.914;8.420;2023-03-23T12:30:12;1.33;;;1.10;;
15708;SDS011;7954;51.914;8.420;2023-03-23T12:32:49;1.23;;;1.00;;
15708;SDS011;7954;51.914;8.420;2023-03-23T12:35:27;2.10;;;1.13;;
15708;SDS011;7954;51.914;8.420;2023-03-23T12:38:07;1.90;;;1.00;;
15708;SDS011;7954;51.914;8.420;2023-03-23T12:40:48;2.53;;;1.30;;
15708;SDS011;7954;51.914;8.420;2023-03-23T12:43:26;1.70;;;1.30;;
15708;SDS011;7954;51.914;8.420;2023-03-23T12:46:01;2.57;;;1.10;;
15708;SDS011;7954;51.914;8.420;2023-03-23T12:48:37;1.63;;;1.20;;
15708;SDS011;7954;51.914;8.420;2023-03-23T12:51:10;2.00;;;1.20;;
15708;SDS011;7954;51.914;8.420;2023-03-23T12:53:46;2.67;;;1.17;;
15708;SDS011;7954;51.914;8.420;2023-03-23T12:56:23;2.10;;;1.30;;
15708;SDS011;7954;51.914;8.420;2023-03-23T12:58:59;2.97;;;1.30;;
15708;SDS011;7954;51.914;8.420;2023-03-23T13:01:30;2.37;;;1.27;;
15708;SDS011;7954;51.914;8.420;2023-03-23T13:04:01;2.63;;;1.30;;
15708;SDS011;7954;51.914;8.420;2023-03-23T13:06:34;1.87;;;1.40;;
15708;SDS011;7954;51.914;8.420;2023-03-23T13:09:04;2.83;;;1.37;;
15708;SDS011;7954;51.914;8.420;2023-03-23T13:11:39;1.90;;;1.40;;
15708;SDS011;7954;51.914;8.420;2023-03-23T13:14:17;3.33;;;1.70;;
15708;SDS011;7954;51.914;8.420;2023-03-23T13:16:58;2.53;;;1.70;;
15708;SDS011;7954;51.914;8.420;2023-03-23T13:19:34;2.93;;;1.77;;
15708;SDS011;7954;51.914;8.420;2023-03-23T13:22:12;2.73;;;1.83;;
15708;SDS011;7954;51.914;8.420;2023-03-23T13:24:48;6.47;;;2.43;;
15708;SDS011;7954;51.914;8.420;2023-03-23T13:27:17;2.00;;;1.80;;
15708;SDS011;7954;51.914;8.420;2023-03-23T13:29:50;3.43;;;2.03;;
15708;SDS011;7954;51.914;8.420;2023-03-23T13:32:18;2.00;;;1.70;;
15708;SDS011;7954;51.914;8.420;2023-03-23T13:34:45;1.83;;;1.50;;
15708;SDS011;7954;51.914;8.420;2023-03-23T13:37:19;2.57;;;1.80;;
15708;SDS011;7954;51.914;8.420;2023-03-23T13:39:49;1.77;;;1.47;;
15708;SDS011;7954;51.914;8.420;2023-03-23T13:42:19;2.47;;;1.60;;
15708;SDS011;7954;51.914;8.420;2023-03-23T13:44:57;3.10;;;2.00;;
15708;SDS011;7954;51.914;8.420;2023-03-23T13:47:36;3.00;;;1.90;;
15708;SDS011;7954;51.914;8.420;2023-03-23T13:50:10;2.00;;;1.80;;
15708;SDS011;7954;51.914;8.420;2023-03-23T13:52:38;1.90;;;1.70;;
15708;SDS011;7954;51.914;8.420;2023-03-23T13:55:29;2.43;;;1.90;;
15708;SDS011;7954;51.914;8.420;2023-03-23T13:58:11;2.83;;;2.10;;
15708;SDS011;7954;51.914;8.420;2023-03-23T14:01:00;2.97;;;2.10;;
15708;SDS011;7954;51.914;8.420;2023-03-23T14:03:33;1.87;;;1.70;;
15708;SDS011;7954;51.914;8.420;2023-03-23T14:06:03;1.97;;;1.70;;
15708;SDS011;7954;51.914;8.420;2023-03-23T14:08:39;4.03;;;1.90;;
15708;SDS011;7954;51.914;8.420;2023-03-23T14:11:10;2.23;;;1.80;;
15708;SDS011;7954;51.914;8.420;2023-03-23T14:13:42;1.90;;;1.67;;
15708;SDS011;7954;51.914;8.420;2023-03-23T14:16:17;2.20;;;1.70;;
15708;SDS011;7954;51.914;8.420;2023-03-23T14:18:51;2.53;;;1.97;;
15708;SDS011;7954;51.914;8.420;2023-03-23T14:21:26;1.90;;;1.80;;
15708;SDS011;7954;51.914;8.420;2023-03-23T14:24:02;1.90;;;1.80;;
15708;SDS011;7954;51.914;8.420;2023-03-23T14:26:33;2.43;;;2.23;;
15708;SDS011;7954;51.914;8.420;2023-03-23T14:29:01;3.00;;;2.50;;
15708;SDS011;7954;51.914;8.420;2023-03-23T14:31:31;2.53;;;2.20;;
15708;SDS011;7954;51.914;8.420;2023-03-23T14:34:01;3.83;;;2.53;;
15708;SDS011;7954;51.914;8.420;2023-03-23T14:36:30;3.20;;;2.70;;
15708;SDS011;7954;51.914;8.420;2023-03-23T14:39:00;4.73;;;3.10;;
15708;SDS011;7954;51.914;8.420;2023-03-23T14:41:31;3.93;;;3.13;;
15708;SDS011;7954;51.914;8.420;2023-03-23T14:44:00;3.00;;;2.60;;
15708;SDS011;7954;51.914;8.420;2023-03-23T14:46:30;3.87;;;2.83;;
15708;SDS011;7954;51.914;8.420;2023-03-23T14:48:59;2.80;;;2.60;;
15708;SDS011;7954;51.914;8.420;2023-03-23T14:51:29;3.27;;;2.47;;
15708;SDS011;7954;51.914;8.420;2023-03-23T14:53:57;3.33;;;2.10;;
15708;SDS011;7954;51.914;8.420;2023-03-23T14:56:30;5.07;;;2.50;;
15708;SDS011;7954;51.914;8.420;2023-03-23T14:59:02;2.83;;;2.10;;
15708;SDS011;7954;51.914;8.420;2023-03-23T15:01:32;2.17;;;1.97;;
15708;SDS011;7954;51.914;8.420;2023-03-23T15:04:02;2.00;;;1.87;;
15708;SDS011;7954;51.914;8.420;2023-03-23T15:06:33;2.33;;;2.10;;
15708;SDS011;7954;51.914;8.420;2023-03-23T15:09:03;5.60;;;2.23;;
15708;SDS011;7954;51.914;8.420;2023-03-23T15:11:33;2.43;;;2.00;;
15708;SDS011;7954;51.914;8.420;2023-03-23T15:14:07;3.37;;;1.90;;
15708;SDS011;7954;51.914;8.420;2023-03-23T15:16:40;2.23;;;1.87;;
15708;SDS011;7954;51.914;8.420;2023-03-23T15:19:16;2.73;;;2.10;;
15708;SDS011;7954;51.914;8.420;2023-03-23T15:21:49;2.27;;;2.07;;
15708;SDS011;7954;51.914;8.420;2023-03-23T15:24:25;3.00;;;2.03;;
15708;SDS011;7954;51.914;8.420;2023-03-23T15:27:02;2.10;;;1.90;;
15708;SDS011;7954;51.914;8.420;2023-03-23T15:29:30;2.03;;;1.80;;